Winter Springs, FL

12:52 PM EDT on April 28, 2015 (GMT -0400)
Oak Forest | | Change Station
CLOSE
Current Station
Personal Weather Station
Location: Winter Springs, FL
Elevation: 62 ft
Nearby Weather Stations

Elev 62 ft 28.68 °N, 81.27 °W | Updated 4 seconds ago

Overcast
Overcast
74.8 °F
Feels Like 74 °F
N
0.0
Wind Variable Wind from ESE
Gusts 3.0 mph

Today
High -- | Low -- °F
--% Chance of Precip.
Yesterday
High -- | Low -- °F
Precip. -- in
6:47 AM 7:58 PM
Waxing Gibbous, 75% visible
Pressure 29.83 in
Visibility 10.0 miles
Clouds Few 6500 ft
Scattered Clouds 10000 ft
Mostly Cloudy 12000 ft
Heat Index 74 °F
Dew Point 72 °F
Humidity 91%
Rainfall 0.15 in
Snow Depth Not available.
UV 7 out of 12
Pollen .10 out of 12
Air Quality Not available.
Flu Activity Local Activity
METAR KSFB 281553Z 25008KT 10SM FEW065 SCT100 BKN120 23/21 A2983 RMK AO2 RAB14E39 SLP101 P0000 T02280211

More Conditions Fewer Conditions

Pressure 29.83 in
Visibility 10.0 miles
Clouds Few 6500 ft
Scattered Clouds 10000 ft
Mostly Cloudy 12000 ft
Heat Index 74 °F
Dew Point 72 °F
Humidity 91%
Rainfall 0.15 in
Snow Depth Not available.
UV 7 out of 12
Pollen .10 out of 12
Air Quality Not available.
Flu Activity Local Activity
METAR KSFB 281553Z 25008KT 10SM FEW065 SCT100 BKN120 23/21 A2983 RMK AO2 RAB14E39 SLP101 P0000 T02280211

More Conditions Fewer Conditions

Nowcast | as of 9:27 am EDT on April 28, 2015

Through early afternoon...numerous showers and embedded storms will move across the area at 20 to 30 mph. A few storms may become strong...particularly from Lake Okeechobee to Kissimmee and along the space and Treasure coasts. Periods of heavy rain of one to two inches within a couple of hours can bring nuisance flooding. Stronger storms can bring locally gusty winds of 40 to 50 mph along with small hail. Potential for storms with heavy rain will increase during the afternoon. Additional details...including graphics are available online at: http://www.Srh.NOAA.Gov/mlb/blog.Php

×

10-Day Weather Forecast

Almanac

Astronomy

Apr. 28, 2015 Rise Set
Actual Time
Civil Twilight
Nautical Twilight
Astronomical Twilight
Moon
Length of Visible Light
Length of Day
Tomorrow will be .
, % of the Moon is Illuminated

Today's Extremes

State Highs State Lows

Community

WunderPhotos

Upload Photos

1,817,699 photos uploaded!

WunderBlogs® & News

Nearby

Air Quality

  Air Quality AQ Index Pollutant
Not available.

Snow Depth

Station Depth Elevation

Earthquake Activity

City Distance Mag. Time & Date
Minimum magnitude displayed is 2.5.

Coastal Water Temperatures

Place Temperature

Stations

Nearby Weather Stations

Station Location Temp. Windchill Dew Point Humidity Wind Precip. Elev Updated Type